Time;durP1;ratioP1;P1;durP2;ratioP2;P2;SDS_P1;SDS_P2;PMS_P1;PMS_P2;Temp;Humidity;BMP_temperature;BMP_pressure;BME280_temperature;BME280_humidity;BME280_pressure;Samples;Min_cycle;Max_cycle;Signal;HPM_P1;HPM_P2
2023/03/24 00:01:05;;;;;;;3.23;1.90;;;10.70;99.90;;;;;;8306627;28;20198;-83
2023/03/24 00:05:07;;;;;;;2.80;1.80;;;10.60;99.90;;;;;;8320552;28;20490;-83
2023/03/24 00:09:09;;;;;;;2.47;1.70;;;10.50;99.90;;;;;;8318512;28;20200;-83
2023/03/24 00:13:09;;;;;;;2.13;1.70;;;10.40;1.00;;;;;;8322130;28;20621;-82
2023/03/24 00:17:16;;;;;;;2.67;2.13;;;10.20;1.00;;;;;;8316839;28;20366;-82
2023/03/24 00:21:20;;;;;;;3.27;2.13;;;10.10;1.00;;;;;;8331327;28;20202;-84
2023/03/24 00:25:26;;;;;;;2.90;2.10;;;10.00;1.00;;;;;;8322891;28;20262;-84
2023/03/24 00:29:28;;;;;;;3.40;2.07;;;9.80;10.40;;;;;;8318460;28;20195;-82
2023/03/24 00:33:33;;;;;;;2.40;1.80;;;9.70;99.90;;;;;;8313835;28;20217;-83
2023/03/24 00:37:38;;;;;;;2.77;1.60;;;9.70;99.90;;;;;;8299864;28;20206;-82
2023/03/24 00:41:43;;;;;;;2.60;1.87;;;9.70;99.90;;;;;;8310040;28;20194;-82
2023/03/24 00:45:45;;;;;;;2.13;1.53;;;9.70;99.90;;;;;;8304141;28;20215;-83
2023/03/24 00:49:46;;;;;;;1.83;1.63;;;9.70;99.90;;;;;;8300009;28;20202;-83
2023/03/24 00:53:47;;;;;;;2.03;1.63;;;9.80;99.90;;;;;;8301666;28;20193;-82
2023/03/24 00:57:49;;;;;;;1.50;1.40;;;9.90;99.90;;;;;;8305927;28;20178;-82
2023/03/24 01:01:49;;;;;;;2.70;1.80;;;9.90;99.90;;;;;;8302068;28;20188;-82
2023/03/24 01:05:53;;;;;;;2.50;1.73;;;9.90;99.90;;;;;;8309248;28;20215;-83
2023/03/24 01:09:57;;;;;;;1.70;1.50;;;10.00;99.90;;;;;;8306313;28;20263;-83
2023/03/24 01:13:58;;;;;;;2.00;1.40;;;10.10;99.90;;;;;;8304380;28;20188;-82
2023/03/24 01:18:02;;;;;;;3.93;1.57;;;10.20;99.90;;;;;;8305435;28;20264;-82
2023/03/24 01:22:03;;;;;;;1.93;1.53;;;10.30;99.90;;;;;;8303894;28;20193;-82
2023/03/24 01:26:06;;;;;;;2.30;1.70;;;10.40;99.90;;;;;;8308025;28;20212;-82
2023/03/24 01:30:09;;;;;;;3.83;2.17;;;10.40;99.90;;;;;;8302623;28;20191;-81
2023/03/24 01:34:10;;;;;;;2.83;2.23;;;10.40;99.90;;;;;;8311157;28;20219;-82
2023/03/24 01:38:12;;;;;;;3.57;2.10;;;10.50;32.00;;;;;;8298740;28;20192;-83
2023/03/24 01:42:22;;;;;;;2.60;1.90;;;10.70;1.00;;;;;;8302479;28;20271;-82
2023/03/24 01:46:25;;;;;;;4.73;2.07;;;10.80;1.00;;;;;;8308133;28;20500;-83
2023/03/24 01:50:26;;;;;;;3.87;2.10;;;10.90;99.90;;;;;;8311263;28;20281;-83
2023/03/24 01:54:35;;;;;;;2.77;2.20;;;11.00;99.90;;;;;;8305959;28;20177;-82
2023/03/24 01:58:40;;;;;;;3.67;2.10;;;11.00;99.90;;;;;;8302991;28;20192;-82
2023/03/24 02:02:48;;;;;;;3.17;2.00;;;11.00;99.90;;;;;;8324049;28;20182;-82
2023/03/24 02:06:49;;;;;;;4.47;2.50;;;11.00;99.90;;;;;;8323706;28;20183;-83
2023/03/24 02:10:53;;;;;;;2.70;1.70;;;11.00;99.90;;;;;;8311799;28;20216;-82
2023/03/24 02:14:54;;;;;;;2.47;1.90;;;11.00;99.90;;;;;;8306158;28;20192;-82
2023/03/24 02:19:22;;;;;;;2.93;2.30;;;10.90;99.90;;;;;;8314165;28;20201;-82
2023/03/24 02:23:52;;;;;;;2.50;1.60;;;10.80;99.90;;;;;;8306753;28;20209;-83
2023/03/24 02:28:12;;;;;;;1.93;1.50;;;10.80;99.90;;;;;;8303683;28;20222;-81
2023/03/24 02:32:15;;;;;;;2.93;1.93;;;10.80;1.00;;;;;;8308643;28;20186;-83
2023/03/24 02:36:35;;;;;;;2.00;1.70;;;10.70;1.00;;;;;;8308008;28;20390;-82
2023/03/24 02:40:54;;;;;;;2.13;1.73;;;10.60;1.00;;;;;;8313508;28;20172;-82
2023/03/24 02:44:55;;;;;;;3.13;1.80;;;10.60;1.00;;;;;;8305766;28;20263;-82
2023/03/24 02:49:22;;;;;;;3.17;2.23;;;10.60;1.00;;;;;;8300151;28;20786;-82
2023/03/24 02:53:39;;;;;;;2.53;2.00;;;10.60;14.40;;;;;;8295160;28;20270;-82
2023/03/24 02:58:07;;;;;;;2.77;1.87;;;10.70;88.20;;;;;;8302087;28;20204;-82
2023/03/24 03:02:19;;;;;;;3.10;2.37;;;10.90;99.90;;;;;;8297840;28;20203;-83
2023/03/24 03:06:27;;;;;;;3.57;2.60;;;10.90;99.90;;;;;;8307805;28;20296;-82
2023/03/24 03:10:41;;;;;;;2.87;2.20;;;11.00;99.90;;;;;;8311082;28;20187;-82
2023/03/24 03:14:49;;;;;;;3.10;2.30;;;11.10;99.90;;;;;;8302241;28;20190;-82
2023/03/24 03:19:00;;;;;;;3.47;2.53;;;11.20;99.90;;;;;;8305578;28;20206;-82
2023/03/24 03:23:07;;;;;;;2.90;2.57;;;11.30;25.60;;;;;;8312951;28;20278;-83
2023/03/24 03:27:14;;;;;;;3.73;2.77;;;11.30;4.40;;;;;;8292852;28;20194;-83
2023/03/24 03:31:42;;;;;;;2.77;2.30;;;11.30;1.00;;;;;;8311387;28;20189;-83
2023/03/24 03:35:53;;;;;;;2.67;2.37;;;11.40;5.80;;;;;;8304399;28;20222;-84
2023/03/24 03:40:07;;;;;;;5.53;3.03;;;11.50;99.90;;;;;;8304364;28;20190;-81
2023/03/24 03:44:08;;;;;;;3.33;2.47;;;11.50;99.90;;;;;;8310504;28;20579;-83
2023/03/24 03:48:10;;;;;;;4.70;3.13;;;11.40;99.90;;;;;;8316355;28;20175;-82
2023/03/24 03:52:12;;;;;;;3.67;3.13;;;11.40;99.90;;;;;;8319803;28;20195;-83
2023/03/24 03:56:17;;;;;;;4.30;3.00;;;11.40;1.00;;;;;;8319131;28;20186;-82
2023/03/24 04:00:19;;;;;;;4.33;3.07;;;11.40;1.00;;;;;;8316759;28;20224;-82
2023/03/24 04:04:56;;;;;;;5.43;3.27;;;11.40;1.00;;;;;;8335122;28;20214;-84
2023/03/24 04:09:30;;;;;;;4.17;3.10;;;11.40;99.90;;;;;;8322570;28;20233;-82
2023/03/24 04:13:40;;;;;;;3.63;3.30;;;11.50;99.90;;;;;;8265781;28;20262;-82
2023/03/24 04:18:10;;;;;;;4.67;3.00;;;11.50;99.90;;;;;;8306354;28;20210;-82
2023/03/24 04:22:37;;;;;;;4.67;3.27;;;11.60;99.90;;;;;;8307185;28;20189;-83
2023/03/24 04:27:16;;;;;;;4.53;3.13;;;11.70;59.80;;;;;;8306326;28;20193;-83
2023/03/24 04:31:28;;;;;;;3.60;3.03;;;11.70;1.00;;;;;;8291170;28;20248;-83
2023/03/24 04:35:39;;;;;;;5.00;3.50;;;11.80;1.00;;;;;;8307671;28;20228;-82
2023/03/24 04:39:44;;;;;;;4.83;3.50;;;11.80;99.90;;;;;;8305960;28;20194;-82
2023/03/24 04:43:47;;;;;;;4.67;3.23;;;11.90;99.90;;;;;;8319235;28;20269;-81
2023/03/24 04:47:55;;;;;;;4.33;3.17;;;11.90;99.90;;;;;;8301808;28;20185;-83
2023/03/24 04:51:56;;;;;;;4.03;2.70;;;11.90;99.90;;;;;;8298789;28;20269;-83
2023/03/24 04:56:27;;;;;;;3.43;2.87;;;11.90;99.90;;;;;;8302944;28;20200;-83
2023/03/24 05:00:30;;;;;;;5.20;2.90;;;11.90;99.90;;;;;;8307117;28;20270;-82
2023/03/24 05:04:35;;;;;;;3.63;2.70;;;11.90;99.90;;;;;;8287247;28;20258;-83
2023/03/24 05:08:36;;;;;;;4.73;2.90;;;11.90;99.90;;;;;;8310988;28;20182;-78
2023/03/24 05:12:37;;;;;;;5.13;2.97;;;11.90;99.90;;;;;;8301093;28;20186;-77
2023/03/24 05:16:37;;;;;;;3.30;2.50;;;12.00;99.90;;;;;;8300114;28;20202;-77
2023/03/24 05:20:38;;;;;;;3.47;2.70;;;12.00;99.90;;;;;;8306467;28;20230;-77
2023/03/24 05:24:39;;;;;;;3.37;2.73;;;12.00;1.00;;;;;;8306986;28;20218;-77
2023/03/24 05:28:40;;;;;;;3.80;3.43;;;12.00;1.00;;;;;;8305671;28;20226;-77
2023/03/24 05:32:41;;;;;;;3.97;3.13;;;12.00;1.00;;;;;;8299637;28;20290;-77
2023/03/24 05:36:41;;;;;;;5.63;3.57;;;12.00;99.90;;;;;;8305929;28;20207;-78
2023/03/24 05:40:42;;;;;;;4.17;3.50;;;12.00;99.90;;;;;;8304809;28;20186;-77
2023/03/24 05:44:44;;;;;;;5.77;3.33;;;12.00;99.90;;;;;;8301396;28;20240;-77
2023/03/24 05:48:45;;;;;;;5.00;3.40;;;12.00;99.90;;;;;;8296308;28;20191;-78
2023/03/24 05:52:46;;;;;;;3.30;2.60;;;12.10;99.90;;;;;;8308344;28;20204;-78
2023/03/24 05:56:47;;;;;;;3.73;2.70;;;12.00;99.90;;;;;;8298499;28;20190;-77
2023/03/24 06:00:48;;;;;;;3.37;2.93;;;12.10;99.90;;;;;;8303721;28;20306;-77
2023/03/24 06:04:50;;;;;;;4.57;3.00;;;12.20;99.90;;;;;;8298402;28;20227;-78
2023/03/24 06:08:53;;;;;;;4.90;3.00;;;12.30;99.90;;;;;;8299194;28;20199;-78
2023/03/24 06:12:55;;;;;;;4.00;3.23;;;12.30;99.90;;;;;;8299286;28;20229;-77
2023/03/24 06:16:58;;;;;;;3.40;2.90;;;12.40;99.90;;;;;;8299476;28;20195;-78
2023/03/24 06:20:59;;;;;;;4.77;3.13;;;12.40;99.90;;;;;;8303976;28;20303;-78
2023/03/24 06:25:01;;;;;;;7.13;3.80;;;12.40;99.90;;;;;;8295341;28;20245;-78
2023/03/24 06:29:02;;;;;;;4.97;3.10;;;12.30;99.90;;;;;;8310585;28;20216;-77
2023/03/24 06:33:03;;;;;;;5.13;3.53;;;12.30;99.90;;;;;;8307539;28;20194;-77
2023/03/24 06:37:04;;;;;;;4.77;3.80;;;12.30;1.00;;;;;;8308753;28;20214;-78
2023/03/24 06:41:05;;;;;;;6.33;4.00;;;12.30;1.00;;;;;;8310611;28;20195;-77
2023/03/24 06:45:07;;;;;;;4.93;3.83;;;12.30;1.00;;;;;;8313749;28;20210;-78
2023/03/24 06:49:08;;;;;;;5.33;3.80;;;12.30;1.00;;;;;;8301548;28;20191;-77
2023/03/24 06:53:09;;;;;;;4.00;3.40;;;12.30;1.00;;;;;;8302169;28;20217;-77
2023/03/24 06:57:09;;;;;;;5.83;4.20;;;12.40;1.00;;;;;;8310658;28;20199;-77
2023/03/24 07:01:10;;;;;;;4.47;3.73;;;12.40;1.00;;;;;;8305435;28;20191;-77
2023/03/24 07:05:12;;;;;;;6.97;4.97;;;12.40;99.90;;;;;;8310771;28;20280;-77
2023/03/24 07:09:13;;;;;;;8.40;5.00;;;12.50;99.90;;;;;;8305836;28;20194;-77
2023/03/24 07:13:14;;;;;;;6.33;4.73;;;12.50;99.90;;;;;;8304121;28;20286;-77
2023/03/24 07:17:15;;;;;;;6.57;4.57;;;12.70;8.60;;;;;;8325247;28;20218;-78
2023/03/24 07:21:17;;;;;;;6.00;4.20;;;12.70;1.00;;;;;;8303830;28;20537;-78
2023/03/24 07:25:20;;;;;;;7.13;4.70;;;12.90;99.90;;;;;;8318255;28;20211;-77
2023/03/24 07:29:21;;;;;;;5.17;4.00;;;13.10;99.90;;;;;;8316392;28;20202;-77
2023/03/24 07:33:23;;;;;;;5.47;4.50;;;13.30;99.90;;;;;;8326101;28;20181;-77
2023/03/24 07:37:24;;;;;;;6.87;4.40;;;13.50;99.90;;;;;;8345326;28;20491;-77
2023/03/24 07:41:26;;;;;;;5.37;4.00;;;13.80;1.00;;;;;;8347426;28;20233;-78
2023/03/24 07:45:27;;;;;;;4.27;3.43;;;14.10;1.00;;;;;;8341960;28;20225;-78
2023/03/24 07:49:28;;;;;;;3.67;3.07;;;14.40;1.00;;;;;;8347438;28;20186;-78
2023/03/24 07:53:28;;;;;;;4.17;3.10;;;14.60;99.90;;;;;;8350438;28;20190;-77
2023/03/24 07:57:29;;;;;;;3.33;2.50;;;14.90;99.90;;;;;;8303866;28;20228;-77
2023/03/24 08:01:30;;;;;;;3.10;2.40;;;15.20;99.90;;;;;;8302353;28;20191;-78
2023/03/24 08:05:31;;;;;;;3.27;2.40;;;15.60;99.90;;;;;;8320675;28;20211;-78
2023/03/24 08:09:32;;;;;;;3.50;2.20;;;15.80;99.90;;;;;;8310208;28;20194;-78
2023/03/24 08:13:33;;;;;;;3.37;2.23;;;16.10;99.90;;;;;;8311561;28;20264;-78
2023/03/24 08:17:34;;;;;;;2.33;2.10;;;16.20;99.90;;;;;;8307337;28;20242;-78
2023/03/24 08:21:35;;;;;;;3.37;2.63;;;16.30;99.90;;;;;;8297645;28;20213;-78
2023/03/24 08:25:36;;;;;;;2.57;2.37;;;16.30;99.90;;;;;;8302249;28;20207;-76
2023/03/24 08:29:37;;;;;;;2.80;2.27;;;16.50;99.90;;;;;;8307707;28;20224;-78
2023/03/24 08:33:38;;;;;;;2.60;2.40;;;16.60;99.90;;;;;;8308230;28;20187;-78
2023/03/24 08:37:42;;;;;;;2.33;2.00;;;16.70;99.90;;;;;;8304269;28;20217;-78
2023/03/24 08:41:45;;;;;;;5.63;1.90;;;16.60;99.90;;;;;;8301512;28;20466;-78
2023/03/24 08:45:46;;;;;;;2.10;1.80;;;16.60;99.90;;;;;;8296419;28;20226;-78
2023/03/24 08:49:47;;;;;;;2.60;2.00;;;16.60;99.90;;;;;;8305255;28;20186;-78
2023/03/24 08:53:48;;;;;;;3.50;2.43;;;16.60;99.90;;;;;;8305150;28;20201;-78
2023/03/24 08:57:49;;;;;;;2.20;2.00;;;16.50;99.90;;;;;;8299414;28;20198;-78
2023/03/24 09:01:49;;;;;;;2.43;1.80;;;16.50;99.90;;;;;;8308438;28;20191;-78
2023/03/24 09:05:55;;;;;;;3.43;1.60;;;16.70;99.90;;;;;;8315204;28;20282;-78
2023/03/24 09:09:56;;;;;;;3.77;1.73;;;17.10;99.90;;;;;;8308682;28;20206;-78
2023/03/24 09:13:57;;;;;;;2.07;1.40;;;17.60;75.60;;;;;;8301093;28;20267;-78
2023/03/24 09:17:58;;;;;;;3.00;1.50;;;17.70;46.90;;;;;;8306295;28;20217;-78
2023/03/24 09:21:59;;;;;;;1.83;1.33;;;17.90;47.60;;;;;;8304302;28;20186;-79
2023/03/24 09:26:00;;;;;;;1.50;1.13;;;18.00;18.80;;;;;;8297130;28;20312;-78
2023/03/24 09:30:02;;;;;;;5.37;1.70;;;18.00;14.20;;;;;;8300747;28;20209;-78
2023/03/24 09:34:03;;;;;;;2.47;1.60;;;18.10;3.00;;;;;;8310231;28;20194;-78
2023/03/24 09:38:04;;;;;;;2.00;1.30;;;18.20;3.20;;;;;;8301304;28;20281;-78
2023/03/24 09:42:06;;;;;;;2.83;1.40;;;18.40;1.00;;;;;;8303895;28;20205;-78
2023/03/24 09:46:14;;;;;;;1.70;1.43;;;18.40;1.00;;;;;;8301390;28;20207;-78
2023/03/24 09:50:21;;;;;;;2.30;1.60;;;18.60;1.00;;;;;;8304339;28;20256;-78
2023/03/24 09:54:53;;;;;;;1.87;1.07;;;18.80;1.00;;;;;;8295501;28;20214;-78
2023/03/24 09:59:25;;;;;;;3.37;1.50;;;19.00;1.00;;;;;;8301242;28;20253;-78
2023/03/24 10:03:26;;;;;;;1.60;1.40;;;19.30;1.00;;;;;;8302333;28;20248;-78
2023/03/24 10:07:38;;;;;;;3.47;1.50;;;19.60;1.00;;;;;;8316568;28;20268;-79
2023/03/24 10:11:48;;;;;;;4.13;1.43;;;19.90;1.00;;;;;;8312657;28;20282;-79
2023/03/24 10:15:58;;;;;;;2.30;1.60;;;20.20;1.00;;;;;;8312120;28;20194;-79
2023/03/24 10:20:17;;;;;;;1.57;1.27;;;20.10;1.00;;;;;;8313274;28;20206;-79
2023/03/24 10:24:37;;;;;;;3.37;1.50;;;20.20;1.00;;;;;;8309804;28;20210;-78
2023/03/24 10:28:56;;;;;;;3.07;1.60;;;20.10;1.00;;;;;;8312835;28;20301;-79
2023/03/24 10:32:57;;;;;;;2.20;1.63;;;19.90;1.00;;;;;;8305924;28;20190;-79
2023/03/24 10:37:03;;;;;;;2.63;1.70;;;19.60;1.00;;;;;;8306473;28;20203;-79
2023/03/24 10:41:04;;;;;;;2.70;1.73;;;19.50;1.00;;;;;;8311114;28;20190;-79
2023/03/24 10:45:10;;;;;;;3.33;1.40;;;19.60;1.00;;;;;;8303730;28;20229;-79
2023/03/24 10:49:11;;;;;;;2.47;1.73;;;19.60;1.00;;;;;;8304318;28;20405;-79
2023/03/24 10:53:17;;;;;;;2.03;1.60;;;19.50;1.00;;;;;;8308328;28;20221;-79
2023/03/24 10:57:18;;;;;;;1.83;1.53;;;19.30;1.00;;;;;;8309667;28;20194;-79
2023/03/24 11:01:29;;;;;;;2.70;1.80;;;19.30;1.00;;;;;;8305096;28;20198;-79
2023/03/24 11:05:33;;;;;;;2.00;1.77;;;19.10;1.00;;;;;;8321993;28;20206;-79
2023/03/24 11:09:46;;;;;;;3.97;2.30;;;19.00;1.00;;;;;;8317532;28;20217;-79
2023/03/24 11:13:56;;;;;;;2.50;2.03;;;18.80;1.00;;;;;;8336949;28;20595;-79
2023/03/24 11:18:19;;;;;;;2.87;2.07;;;18.80;1.00;;;;;;8349689;28;20253;-79
2023/03/24 11:22:21;;;;;;;2.30;1.90;;;18.90;1.00;;;;;;8351746;28;20194;-79
2023/03/24 11:26:30;;;;;;;3.63;2.10;;;18.80;3.90;;;;;;8352131;28;20222;-78
2023/03/24 11:30:49;;;;;;;3.97;2.43;;;18.90;6.30;;;;;;8357565;28;20183;-79
2023/03/24 11:35:12;;;;;;;3.90;2.13;;;18.90;1.00;;;;;;8318877;28;20211;-78
2023/03/24 11:39:16;;;;;;;2.87;2.27;;;18.80;5.60;;;;;;8306735;28;20183;-79
2023/03/24 11:43:20;;;;;;;4.63;2.30;;;18.80;1.00;;;;;;8307254;28;20214;-78
2023/03/24 11:47:41;;;;;;;3.10;2.23;;;18.80;3.50;;;;;;8312826;28;20256;-79
2023/03/24 11:51:44;;;;;;;5.57;2.13;;;18.80;8.50;;;;;;8305336;28;20207;-79
2023/03/24 11:55:56;;;;;;;2.77;1.87;;;18.80;4.30;;;;;;8306812;28;20202;-79
2023/03/24 12:00:17;;;;;;;3.20;2.20;;;18.90;1.00;;;;;;8308866;28;20241;-79
2023/03/24 12:04:49;;;;;;;3.00;2.13;;;18.90;1.00;;;;;;8312487;28;20218;-79
2023/03/24 12:09:08;;;;;;;2.70;2.40;;;18.80;1.00;;;;;;8309362;28;20199;-78
2023/03/24 12:13:15;;;;;;;3.97;2.13;;;18.60;1.00;;;;;;8315501;28;20187;-78
2023/03/24 12:17:26;;;;;;;3.43;2.40;;;18.50;1.00;;;;;;8307850;28;20241;-78
2023/03/24 12:21:41;;;;;;;2.67;2.00;;;18.70;1.00;;;;;;8309809;28;20187;-79
2023/03/24 12:26:13;;;;;;;2.00;1.80;;;19.10;1.00;;;;;;8299541;28;20211;-78
2023/03/24 12:30:31;;;;;;;2.67;2.27;;;19.50;1.00;;;;;;8308220;28;20189;-79
2023/03/24 12:34:46;;;;;;;4.40;1.90;;;19.90;1.00;;;;;;8301008;28;20211;-78
2023/03/24 12:39:03;;;;;;;2.97;1.70;;;20.40;1.00;;;;;;8306879;28;20196;-78
2023/03/24 12:43:41;;;;;;;2.53;1.60;;;20.60;1.00;;;;;;8308234;28;20201;-79
2023/03/24 12:48:05;;;;;;;2.27;1.70;;;20.20;1.00;;;;;;8296922;28;20184;-79
2023/03/24 12:52:19;;;;;;;2.53;1.80;;;19.90;1.00;;;;;;8294599;28;20179;-78
2023/03/24 12:56:39;;;;;;;3.17;1.70;;;20.00;1.00;;;;;;8303252;28;20194;-78
2023/03/24 13:01:06;;;;;;;2.10;1.50;;;19.90;1.00;;;;;;8308401;28;20183;-78
2023/03/24 13:05:23;;;;;;;3.43;1.60;;;19.90;1.00;;;;;;8302818;28;20191;-77
2023/03/24 13:09:48;;;;;;;1.97;1.57;;;19.70;1.00;;;;;;8316808;28;20176;-78
2023/03/24 13:13:49;;;;;;;2.47;1.47;;;19.50;1.00;;;;;;8304441;28;20190;-79
2023/03/24 13:18:08;;;;;;;2.93;2.03;;;19.50;1.00;;;;;;8303017;28;20397;-78
2023/03/24 13:22:17;;;;;;;2.50;1.77;;;19.50;1.00;;;;;;8303238;28;20190;-78
2023/03/24 13:26:39;;;;;;;2.17;1.90;;;19.50;1.00;;;;;;8305114;28;20198;-79
2023/03/24 13:30:43;;;;;;;3.77;1.57;;;19.30;1.00;;;;;;8303071;28;20202;-78
2023/03/24 13:35:08;;;;;;;4.37;1.57;;;19.20;1.00;;;;;;8302410;28;20203;-79
2023/03/24 13:39:20;;;;;;;2.47;1.60;;;19.10;1.00;;;;;;8300631;28;20201;-81
2023/03/24 13:43:24;;;;;;;2.63;1.83;;;19.00;1.00;;;;;;8307369;28;20297;-79
2023/03/24 13:47:26;;;;;;;2.37;1.60;;;18.90;1.00;;;;;;8318417;28;20175;-79
2023/03/24 13:51:34;;;;;;;2.13;1.30;;;18.80;1.00;;;;;;8317167;28;20186;-78
2023/03/24 13:55:38;;;;;;;2.83;1.50;;;18.80;1.00;;;;;;8312077;28;20738;-78
2023/03/24 13:59:39;;;;;;;1.93;1.70;;;18.90;1.00;;;;;;8308764;28;20192;-79
2023/03/24 14:04:18;;;;;;;2.37;1.70;;;18.90;1.00;;;;;;8307973;28;20461;-78
2023/03/24 14:08:32;;;;;;;2.77;1.80;;;19.10;1.00;;;;;;8324491;28;20218;-77
2023/03/24 14:12:53;;;;;;;3.53;1.60;;;19.20;1.00;;;;;;8311841;28;20284;-79
2023/03/24 14:17:14;;;;;;;6.07;1.53;;;19.10;1.00;;;;;;8310211;28;20187;-79
2023/03/24 14:21:27;;;;;;;1.93;1.50;;;19.00;1.00;;;;;;8309058;28;20195;-79
2023/03/24 14:25:31;;;;;;;3.63;1.53;;;18.90;1.00;;;;;;8303527;28;20275;-79
2023/03/24 14:29:53;;;;;;;1.80;1.30;;;18.90;1.00;;;;;;8316708;28;20198;-79
2023/03/24 14:34:04;;;;;;;1.77;1.30;;;18.70;1.00;;;;;;8303342;28;20201;-78
2023/03/24 14:38:23;;;;;;;2.20;1.13;;;18.40;1.00;;;;;;8307341;28;20217;-79
2023/03/24 14:42:33;;;;;;;1.70;1.27;;;18.20;1.00;;;;;;8319096;28;20250;-80
2023/03/24 14:46:38;;;;;;;2.93;1.53;;;18.10;1.00;;;;;;8321783;28;20234;-77
2023/03/24 14:50:40;;;;;;;2.50;1.03;;;18.00;1.00;;;;;;8330423;28;20163;-79
2023/03/24 14:54:51;;;;;;;2.80;1.33;;;18.10;1.00;;;;;;8352093;28;20229;-79
2023/03/24 14:58:55;;;;;;;1.20;1.00;;;18.00;1.00;;;;;;8344490;28;20184;-80
2023/03/24 15:03:22;;;;;;;1.37;1.00;;;17.90;1.00;;;;;;8348679;28;20171;-79
2023/03/24 15:07:23;;;;;;;1.67;1.10;;;17.70;1.00;;;;;;8353668;28;20201;-78
2023/03/24 15:11:28;;;;;;;1.67;1.00;;;17.70;1.00;;;;;;8346044;28;20212;-78
2023/03/24 15:15:30;;;;;;;1.27;1.10;;;17.70;1.00;;;;;;8316552;28;20187;-79
2023/03/24 15:19:32;;;;;;;1.40;1.10;;;17.80;1.00;;;;;;8310684;28;20238;-79
2023/03/24 15:23:33;;;;;;;1.53;0.90;;;17.90;1.00;;;;;;8306965;28;20230;-78
2023/03/24 15:27:34;;;;;;;1.60;1.20;;;18.20;1.00;;;;;;8310311;28;20210;-79
2023/03/24 15:31:35;;;;;;;1.77;1.10;;;18.10;1.00;;;;;;8308987;28;20218;-78
2023/03/24 15:35:36;;;;;;;1.90;1.07;;;18.00;1.00;;;;;;8303857;28;20249;-79
2023/03/24 15:39:38;;;;;;;1.40;1.03;;;17.70;1.00;;;;;;8305568;28;20186;-77
2023/03/24 15:44:06;;;;;;;1.60;1.20;;;17.50;1.00;;;;;;8321826;28;20211;-78
2023/03/24 15:48:15;;;;;;;4.20;1.27;;;17.40;1.00;;;;;;8308820;28;20249;-79
2023/03/24 15:52:33;;;;;;;1.57;1.00;;;17.30;1.00;;;;;;8310739;28;20210;-79
2023/03/24 15:56:35;;;;;;;2.70;1.10;;;17.20;1.00;;;;;;8307878;28;20201;-79
2023/03/24 16:00:38;;;;;;;0.97;0.80;;;17.00;1.00;;;;;;8305687;28;20193;-81
2023/03/24 16:04:40;;;;;;;1.30;0.90;;;15.80;40.90;;;;;;8306808;28;20215;-78
2023/03/24 16:08:42;;;;;;;1.57;0.90;;;14.00;99.90;;;;;;8304812;28;20183;-78
2023/03/24 16:12:44;;;;;;;1.40;0.73;;;13.10;99.90;;;;;;8306264;28;20322;-79
2023/03/24 16:16:45;;;;;;;2.23;1.50;;;12.50;1.00;;;;;;8309524;28;20289;-79
2023/03/24 16:20:46;;;;;;;2.00;1.60;;;11.50;1.00;;;;;;8305470;28;20341;-79
2023/03/24 16:24:47;;;;;;;2.97;1.60;;;11.00;99.90;;;;;;8310833;28;20226;-78
2023/03/24 16:28:49;;;;;;;3.53;2.13;;;10.80;99.90;;;;;;8308950;28;20196;-77
2023/03/24 16:32:50;;;;;;;1.97;1.83;;;10.70;78.90;;;;;;8309536;28;20182;-77
2023/03/24 16:36:53;;;;;;;3.37;2.00;;;10.60;99.90;;;;;;8307122;28;20230;-79
2023/03/24 16:40:56;;;;;;;3.60;2.97;;;10.60;1.00;;;;;;8305850;28;20282;-78
2023/03/24 16:44:57;;;;;;;2.57;2.37;;;10.50;99.90;;;;;;8312586;28;20214;-77
2023/03/24 16:48:59;;;;;;;2.17;1.63;;;10.50;99.90;;;;;;8290363;28;20202;-78
2023/03/24 16:53:01;;;;;;;3.13;2.20;;;10.50;81.10;;;;;;8303925;28;20242;-78
2023/03/24 16:57:02;;;;;;;2.47;2.10;;;10.50;18.10;;;;;;8304521;28;20182;-79
2023/03/24 17:01:25;;;;;;;2.33;1.90;;;10.40;99.90;;;;;;8311794;28;20187;-78
2023/03/24 17:05:29;;;;;;;2.43;1.80;;;10.40;1.00;;;;;;8302071;28;20198;-79
2023/03/24 17:09:31;;;;;;;2.43;1.80;;;10.40;38.30;;;;;;8308861;28;20222;-78
2023/03/24 17:13:31;;;;;;;2.13;1.53;;;10.40;99.90;;;;;;8309237;28;20179;-78
2023/03/24 17:17:32;;;;;;;2.57;1.70;;;10.40;69.30;;;;;;8300932;28;20192;-78
2023/03/24 17:21:38;;;;;;;2.43;1.70;;;10.40;59.50;;;;;;8318576;28;20601;-78
2023/03/24 17:25:39;;;;;;;2.10;1.50;;;10.30;1.00;;;;;;8303322;28;20265;-78
2023/03/24 17:29:40;;;;;;;2.13;1.63;;;10.20;1.00;;;;;;8306505;28;20262;-78
2023/03/24 17:33:41;;;;;;;3.70;2.00;;;10.10;99.90;;;;;;8309095;28;20194;-79
2023/03/24 17:37:42;;;;;;;3.33;2.37;;;10.00;99.90;;;;;;8303631;28;20210;-79
2023/03/24 17:41:46;;;;;;;2.47;1.80;;;10.00;99.90;;;;;;8302959;28;20269;-82
2023/03/24 17:45:47;;;;;;;4.63;2.90;;;9.90;99.90;;;;;;8309495;28;21107;-82
2023/03/24 17:49:48;;;;;;;4.80;2.97;;;9.90;99.90;;;;;;8306561;28;20184;-82
2023/03/24 17:53:49;;;;;;;5.50;3.50;;;9.80;99.90;;;;;;8320519;28;20187;-82
2023/03/24 17:57:50;;;;;;;4.90;3.40;;;9.70;99.90;;;;;;8308369;28;20182;-82
2023/03/24 18:01:51;;;;;;;5.77;3.47;;;9.60;99.90;;;;;;8304188;28;20198;-83
2023/03/24 18:05:52;;;;;;;5.30;3.70;;;9.50;99.90;;;;;;8308882;28;20194;-83
2023/03/24 18:09:54;;;;;;;5.67;3.57;;;9.50;99.90;;;;;;8311991;28;20187;-83
2023/03/24 18:13:54;;;;;;;5.07;3.60;;;9.40;99.90;;;;;;8315255;28;20182;-82
2023/03/24 18:17:56;;;;;;;6.07;3.23;;;9.40;99.90;;;;;;8326651;28;20207;-83
2023/03/24 18:21:57;;;;;;;4.83;3.03;;;9.40;99.90;;;;;;8323370;28;20197;-82
2023/03/24 18:25:59;;;;;;;4.20;2.90;;;9.30;99.90;;;;;;8324037;28;20248;-81
2023/03/24 18:30:02;;;;;;;5.37;3.77;;;9.30;99.90;;;;;;8321763;28;20198;-81
2023/03/24 18:34:03;;;;;;;4.80;4.00;;;9.20;99.90;;;;;;8311772;28;20190;-81
2023/03/24 18:38:05;;;;;;;3.80;3.30;;;9.10;99.90;;;;;;8308050;28;20201;-81
2023/03/24 18:42:06;;;;;;;4.67;3.53;;;9.10;99.90;;;;;;8308742;28;20200;-81
2023/03/24 18:46:08;;;;;;;4.53;3.53;;;9.10;99.90;;;;;;8307962;28;20220;-81
2023/03/24 18:50:10;;;;;;;4.57;3.30;;;9.10;99.90;;;;;;8312204;28;20184;-81
2023/03/24 18:54:12;;;;;;;4.80;3.50;;;9.10;99.90;;;;;;8310170;28;20465;-82
2023/03/24 18:58:14;;;;;;;4.10;3.40;;;9.00;99.90;;;;;;8324940;28;20213;-82
2023/03/24 19:02:15;;;;;;;4.83;3.60;;;9.00;99.90;;;;;;8310724;28;20187;-82
2023/03/24 19:06:17;;;;;;;5.87;4.40;;;8.90;99.90;;;;;;8321053;28;20215;-82
2023/03/24 19:10:18;;;;;;;5.67;4.37;;;8.80;99.90;;;;;;8308242;28;20205;-82
2023/03/24 19:14:19;;;;;;;7.47;3.93;;;8.60;99.90;;;;;;8303909;28;20198;-82
2023/03/24 19:18:24;;;;;;;6.00;4.53;;;8.50;99.90;;;;;;8306271;28;20218;-82
2023/03/24 19:22:25;;;;;;;7.17;4.80;;;8.40;99.90;;;;;;8306055;28;20179;-82
2023/03/24 19:26:26;;;;;;;7.93;5.47;;;8.30;99.90;;;;;;8309183;28;20236;-82
2023/03/24 19:30:28;;;;;;;6.27;4.73;;;8.30;99.90;;;;;;8311163;28;20260;-82
2023/03/24 19:34:29;;;;;;;7.67;5.23;;;8.20;99.90;;;;;;8306172;28;20202;-82
2023/03/24 19:38:31;;;;;;;6.90;4.73;;;8.20;99.90;;;;;;8310709;28;20197;-82
2023/03/24 19:42:32;;;;;;;8.23;5.47;;;8.10;99.90;;;;;;8302351;28;20329;-82
2023/03/24 19:46:33;;;;;;;8.13;5.90;;;8.10;99.90;;;;;;8303353;28;20215;-82
2023/03/24 19:50:35;;;;;;;9.57;5.33;;;8.10;99.90;;;;;;8313566;28;20217;-82
2023/03/24 19:54:36;;;;;;;8.70;5.90;;;8.10;99.90;;;;;;8306576;28;20187;-82
2023/03/24 19:58:37;;;;;;;8.37;6.07;;;8.10;99.90;;;;;;8309173;28;20190;-82
2023/03/24 20:02:38;;;;;;;8.50;6.20;;;8.10;99.90;;;;;;8303551;28;20183;-82
2023/03/24 20:06:41;;;;;;;12.17;6.57;;;8.10;99.90;;;;;;8304556;28;20210;-82
2023/03/24 20:10:42;;;;;;;11.47;6.60;;;8.00;99.90;;;;;;8305062;28;20191;-82
2023/03/24 20:14:43;;;;;;;10.23;6.13;;;8.00;99.90;;;;;;8303506;28;20197;-82
2023/03/24 20:18:44;;;;;;;9.30;5.50;;;8.00;99.90;;;;;;8302720;28;20217;-82
2023/03/24 20:22:47;;;;;;;8.07;5.03;;;8.00;99.90;;;;;;8313721;28;20188;-82
2023/03/24 20:26:49;;;;;;;9.93;5.60;;;7.90;99.90;;;;;;8301919;28;20333;-82
2023/03/24 20:30:51;;;;;;;8.23;5.10;;;7.90;99.90;;;;;;8296884;28;20194;-83
2023/03/24 20:34:53;;;;;;;8.20;5.17;;;7.90;99.90;;;;;;8313812;28;20325;-83
2023/03/24 20:38:58;;;;;;;8.47;5.33;;;7.80;99.90;;;;;;8304345;28;20205;-83
2023/03/24 20:42:59;;;;;;;8.33;5.27;;;7.80;99.90;;;;;;8298881;28;20191;-83
2023/03/24 20:47:00;;;;;;;9.23;4.57;;;7.80;99.90;;;;;;8301627;28;20218;-82
2023/03/24 20:51:02;;;;;;;7.67;4.97;;;7.70;99.90;;;;;;8310532;28;20191;-83
2023/03/24 20:55:05;;;;;;;6.40;4.83;;;7.60;99.90;;;;;;8309090;28;20285;-83
2023/03/24 20:59:06;;;;;;;7.60;4.03;;;7.60;99.90;;;;;;8304914;28;20182;-83
2023/03/24 21:03:09;;;;;;;8.40;4.63;;;7.50;99.90;;;;;;8308925;28;20565;-82
2023/03/24 21:07:10;;;;;;;6.90;4.40;;;7.40;99.90;;;;;;8282790;28;20253;-82
2023/03/24 21:11:12;;;;;;;9.83;4.07;;;7.30;99.90;;;;;;8309719;28;20194;-82
2023/03/24 21:15:13;;;;;;;5.87;4.00;;;7.20;99.90;;;;;;8320927;28;20525;-82
2023/03/24 21:19:14;;;;;;;5.50;3.83;;;7.00;99.90;;;;;;8317531;28;20203;-81
2023/03/24 21:23:17;;;;;;;7.20;4.10;;;7.00;99.90;;;;;;8307950;28;20202;-83
2023/03/24 21:27:20;;;;;;;6.77;4.50;;;6.90;99.90;;;;;;8305391;28;20264;-83
2023/03/24 21:31:26;;;;;;;7.03;4.50;;;6.90;99.90;;;;;;8309296;28;20202;-82